sensor_id;sensor_type;location;lat;lon;timestamp;pressure;altitude;pressure_sealevel;temperature;humidity
12182;BME280;6154;51.550;12.138;2022-08-14T00:02:21;100361.28;;;24.33;51.39
12182;BME280;6154;51.550;12.138;2022-08-14T00:04:53;100353.66;;;24.36;51.11
12182;BME280;6154;51.550;12.138;2022-08-14T00:07:23;100354.19;;;24.32;50.81
12182;BME280;6154;51.550;12.138;2022-08-14T00:09:52;100349.59;;;24.32;50.77
12182;BME280;6154;51.550;12.138;2022-08-14T00:12:42;100351.47;;;24.32;50.48
12182;BME280;6154;51.550;12.138;2022-08-14T00:15:26;100350.97;;;24.20;50.66
12182;BME280;6154;51.550;12.138;2022-08-14T00:18:05;100355.56;;;24.12;50.84
12182;BME280;6154;51.550;12.138;2022-08-14T00:20:41;100359.84;;;24.06;51.06
12182;BME280;6154;51.550;12.138;2022-08-14T00:23:13;100370.31;;;24.01;50.74
12182;BME280;6154;51.550;12.138;2022-08-14T00:25:45;100365.44;;;23.96;51.05
12182;BME280;6154;51.550;12.138;2022-08-14T00:28:33;100364.44;;;23.89;51.31
12182;BME280;6154;51.550;12.138;2022-08-14T00:31:03;100351.41;;;23.85;50.99
12182;BME280;6154;51.550;12.138;2022-08-14T00:33:34;100357.16;;;23.82;51.12
12182;BME280;6154;51.550;12.138;2022-08-14T00:36:20;100348.41;;;23.79;50.85
12182;BME280;6154;51.550;12.138;2022-08-14T00:39:13;100348.03;;;23.74;50.75
12182;BME280;6154;51.550;12.138;2022-08-14T00:41:44;100348.09;;;23.66;51.80
12182;BME280;6154;51.550;12.138;2022-08-14T00:44:13;100351.63;;;23.59;51.36
12182;BME280;6154;51.550;12.138;2022-08-14T00:46:57;100354.47;;;23.57;51.37
12182;BME280;6154;51.550;12.138;2022-08-14T00:49:26;100350.22;;;23.55;51.38
12182;BME280;6154;51.550;12.138;2022-08-14T00:52:04;100347.53;;;23.55;51.35
12182;BME280;6154;51.550;12.138;2022-08-14T00:54:34;100345.87;;;23.45;51.54
12182;BME280;6154;51.550;12.138;2022-08-14T00:57:06;100351.09;;;23.39;51.99
12182;BME280;6154;51.550;12.138;2022-08-14T00:59:35;100348.91;;;23.34;51.52
12182;BME280;6154;51.550;12.138;2022-08-14T01:02:03;100348.56;;;23.29;51.47
12182;BME280;6154;51.550;12.138;2022-08-14T01:04:36;100343.16;;;23.21;51.51
12182;BME280;6154;51.550;12.138;2022-08-14T01:07:21;100341.63;;;23.10;51.79
12182;BME280;6154;51.550;12.138;2022-08-14T01:09:53;100340.78;;;23.02;51.80
12182;BME280;6154;51.550;12.138;2022-08-14T01:12:22;100343.16;;;22.97;51.86
12182;BME280;6154;51.550;12.138;2022-08-14T01:14:56;100340.75;;;22.93;51.46
12182;BME280;6154;51.550;12.138;2022-08-14T01:17:26;100336.72;;;22.89;51.50
12182;BME280;6154;51.550;12.138;2022-08-14T01:20:19;100338.75;;;22.87;51.56
12182;BME280;6154;51.550;12.138;2022-08-14T01:23:10;100331.94;;;22.83;51.62
12182;BME280;6154;51.550;12.138;2022-08-14T01:25:46;100334.97;;;22.80;52.08
12182;BME280;6154;51.550;12.138;2022-08-14T01:28:18;100333.47;;;22.78;51.60
12182;BME280;6154;51.550;12.138;2022-08-14T01:31:10;100336.34;;;22.76;51.86
12182;BME280;6154;51.550;12.138;2022-08-14T01:33:41;100334.12;;;22.72;51.63
12182;BME280;6154;51.550;12.138;2022-08-14T01:36:32;100332.25;;;22.72;52.06
12182;BME280;6154;51.550;12.138;2022-08-14T01:39:09;100331.94;;;22.75;51.96
12182;BME280;6154;51.550;12.138;2022-08-14T01:41:40;100326.69;;;22.74;52.17
12182;BME280;6154;51.550;12.138;2022-08-14T01:44:11;100329.72;;;22.71;51.42
12182;BME280;6154;51.550;12.138;2022-08-14T01:47:04;100326.69;;;22.65;51.55
12182;BME280;6154;51.550;12.138;2022-08-14T01:49:38;100330.38;;;22.64;51.36
12182;BME280;6154;51.550;12.138;2022-08-14T01:52:24;100322.44;;;22.63;51.28
12182;BME280;6154;51.550;12.138;2022-08-14T01:55:14;100318.41;;;22.59;51.36
12182;BME280;6154;51.550;12.138;2022-08-14T01:57:44;100321.94;;;22.59;51.81
12182;BME280;6154;51.550;12.138;2022-08-14T02:00:27;100319.09;;;22.61;52.18
12182;BME280;6154;51.550;12.138;2022-08-14T02:03:02;100311.00;;;22.61;52.46
12182;BME280;6154;51.550;12.138;2022-08-14T02:05:33;100306.94;;;22.57;52.34
12182;BME280;6154;51.550;12.138;2022-08-14T02:08:05;100303.22;;;22.50;52.11
12182;BME280;6154;51.550;12.138;2022-08-14T02:10:38;100304.87;;;22.43;52.04
12182;BME280;6154;51.550;12.138;2022-08-14T02:13:14;100305.53;;;22.36;52.25
12182;BME280;6154;51.550;12.138;2022-08-14T02:15:45;100311.22;;;22.33;51.98
12182;BME280;6154;51.550;12.138;2022-08-14T02:18:16;100295.56;;;22.29;52.37
12182;BME280;6154;51.550;12.138;2022-08-14T02:20:45;100297.06;;;22.31;52.02
12182;BME280;6154;51.550;12.138;2022-08-14T02:23:17;100297.75;;;22.33;52.13
12182;BME280;6154;51.550;12.138;2022-08-14T02:26:00;100299.31;;;22.36;52.29
12182;BME280;6154;51.550;12.138;2022-08-14T02:28:53;100298.97;;;22.39;52.35
12182;BME280;6154;51.550;12.138;2022-08-14T02:31:26;100302.00;;;22.44;53.00
12182;BME280;6154;51.550;12.138;2022-08-14T02:34:12;100297.81;;;22.50;52.51
12182;BME280;6154;51.550;12.138;2022-08-14T02:36:54;100299.66;;;22.49;52.45
12182;BME280;6154;51.550;12.138;2022-08-14T02:39:33;100295.94;;;22.42;52.22
12182;BME280;6154;51.550;12.138;2022-08-14T02:42:06;100291.22;;;22.36;52.14
12182;BME280;6154;51.550;12.138;2022-08-14T02:44:41;100295.59;;;22.37;52.01
12182;BME280;6154;51.550;12.138;2022-08-14T02:47:16;100293.19;;;22.34;51.94
12182;BME280;6154;51.550;12.138;2022-08-14T02:49:48;100290.00;;;22.30;51.95
12182;BME280;6154;51.550;12.138;2022-08-14T02:52:21;100289.66;;;22.25;51.80
12182;BME280;6154;51.550;12.138;2022-08-14T02:55:10;100279.00;;;22.24;51.78
12182;BME280;6154;51.550;12.138;2022-08-14T02:57:48;100278.34;;;22.22;51.79
12182;BME280;6154;51.550;12.138;2022-08-14T03:00:30;100281.72;;;22.24;52.02
12182;BME280;6154;51.550;12.138;2022-08-14T03:02:58;100280.72;;;22.25;51.75
12182;BME280;6154;51.550;12.138;2022-08-14T03:05:34;100282.25;;;22.27;51.66
12182;BME280;6154;51.550;12.138;2022-08-14T03:08:12;100282.88;;;22.21;51.76
12182;BME280;6154;51.550;12.138;2022-08-14T03:10:42;100276.44;;;22.14;52.13
12182;BME280;6154;51.550;12.138;2022-08-14T03:13:18;100281.16;;;22.12;51.83
12182;BME280;6154;51.550;12.138;2022-08-14T03:15:49;100280.50;;;22.10;51.94
12182;BME280;6154;51.550;12.138;2022-08-14T03:18:24;100282.00;;;22.13;51.58
12182;BME280;6154;51.550;12.138;2022-08-14T03:21:03;100285.19;;;22.08;51.54
12182;BME280;6154;51.550;12.138;2022-08-14T03:23:33;100283.84;;;22.12;53.22
12182;BME280;6154;51.550;12.138;2022-08-14T03:26:06;100283.38;;;22.17;52.80
12182;BME280;6154;51.550;12.138;2022-08-14T03:28:46;100285.25;;;22.16;52.71
12182;BME280;6154;51.550;12.138;2022-08-14T03:31:18;100287.56;;;22.11;52.59
12182;BME280;6154;51.550;12.138;2022-08-14T03:33:51;100281.66;;;22.07;53.24
12182;BME280;6154;51.550;12.138;2022-08-14T03:36:20;100278.81;;;22.09;52.91
12182;BME280;6154;51.550;12.138;2022-08-14T03:39:10;100289.09;;;22.14;52.75
12182;BME280;6154;51.550;12.138;2022-08-14T03:41:53;100283.91;;;22.20;54.10
12182;BME280;6154;51.550;12.138;2022-08-14T03:44:31;100278.88;;;22.25;54.18
12182;BME280;6154;51.550;12.138;2022-08-14T03:47:20;100271.28;;;22.29;53.56
12182;BME280;6154;51.550;12.138;2022-08-14T03:50:09;100270.44;;;22.28;53.06
12182;BME280;6154;51.550;12.138;2022-08-14T03:52:37;100266.75;;;22.29;52.52
12182;BME280;6154;51.550;12.138;2022-08-14T03:55:13;100268.09;;;22.33;52.64
12182;BME280;6154;51.550;12.138;2022-08-14T03:57:41;100267.25;;;22.33;53.20
12182;BME280;6154;51.550;12.138;2022-08-14T04:00:13;100269.62;;;22.36;52.83
12182;BME280;6154;51.550;12.138;2022-08-14T04:03:02;100260.38;;;22.38;53.60
12182;BME280;6154;51.550;12.138;2022-08-14T04:05:32;100257.66;;;22.38;53.92
12182;BME280;6154;51.550;12.138;2022-08-14T04:08:09;100251.09;;;22.41;55.38
12182;BME280;6154;51.550;12.138;2022-08-14T04:10:57;100255.66;;;22.49;55.06
12182;BME280;6154;51.550;12.138;2022-08-14T04:13:27;100250.59;;;22.54;55.52
12182;BME280;6154;51.550;12.138;2022-08-14T04:16:01;100250.63;;;22.62;55.44
12182;BME280;6154;51.550;12.138;2022-08-14T04:18:33;100248.94;;;22.69;54.92
12182;BME280;6154;51.550;12.138;2022-08-14T04:21:08;100245.59;;;22.75;54.10
12182;BME280;6154;51.550;12.138;2022-08-14T04:23:36;100254.03;;;22.80;53.51
12182;BME280;6154;51.550;12.138;2022-08-14T04:26:07;100250.00;;;22.84;53.81
12182;BME280;6154;51.550;12.138;2022-08-14T04:28:53;100247.66;;;22.89;54.37
12182;BME280;6154;51.550;12.138;2022-08-14T04:31:40;100241.72;;;22.94;54.19
12182;BME280;6154;51.550;12.138;2022-08-14T04:34:29;100242.94;;;23.00;54.07
12182;BME280;6154;51.550;12.138;2022-08-14T04:36:57;100236.84;;;23.06;53.98
12182;BME280;6154;51.550;12.138;2022-08-14T04:39:51;100239.69;;;23.12;53.56
12182;BME280;6154;51.550;12.138;2022-08-14T04:42:37;100241.72;;;23.18;55.01
12182;BME280;6154;51.550;12.138;2022-08-14T04:45:27;100241.56;;;23.28;54.71
12182;BME280;6154;51.550;12.138;2022-08-14T04:48:07;100237.31;;;23.34;55.67
12182;BME280;6154;51.550;12.138;2022-08-14T04:51:03;100248.28;;;23.40;55.04
12182;BME280;6154;51.550;12.138;2022-08-14T04:53:33;100239.50;;;23.46;55.20
12182;BME280;6154;51.550;12.138;2022-08-14T04:56:09;100245.03;;;23.53;54.92
12182;BME280;6154;51.550;12.138;2022-08-14T04:59:00;100250.63;;;23.60;54.95
12182;BME280;6154;51.550;12.138;2022-08-14T05:01:39;100247.91;;;23.68;55.06
12182;BME280;6154;51.550;12.138;2022-08-14T05:04:18;100249.06;;;23.73;55.65
12182;BME280;6154;51.550;12.138;2022-08-14T05:06:48;100245.50;;;23.81;55.61
12182;BME280;6154;51.550;12.138;2022-08-14T05:09:21;100241.94;;;23.89;55.25
12182;BME280;6154;51.550;12.138;2022-08-14T05:11:50;100231.91;;;23.97;54.98
12182;BME280;6154;51.550;12.138;2022-08-14T05:14:19;100236.28;;;24.06;55.02
12182;BME280;6154;51.550;12.138;2022-08-14T05:17:09;100233.87;;;24.12;55.33
12182;BME280;6154;51.550;12.138;2022-08-14T05:19:39;100235.50;;;24.21;55.06
12182;BME280;6154;51.550;12.138;2022-08-14T05:22:27;100232.59;;;24.30;54.94
12182;BME280;6154;51.550;12.138;2022-08-14T05:24:56;100226.13;;;24.40;55.59
12182;BME280;6154;51.550;12.138;2022-08-14T05:27:25;100227.41;;;24.52;54.76
12182;BME280;6154;51.550;12.138;2022-08-14T05:29:57;100223.25;;;24.64;54.34
12182;BME280;6154;51.550;12.138;2022-08-14T05:32:26;100223.84;;;24.74;54.66
12182;BME280;6154;51.550;12.138;2022-08-14T05:34:57;100215.31;;;24.85;54.97
12182;BME280;6154;51.550;12.138;2022-08-14T05:37:26;100218.25;;;24.99;55.05
12182;BME280;6154;51.550;12.138;2022-08-14T05:39:58;100218.50;;;25.12;55.13
12182;BME280;6154;51.550;12.138;2022-08-14T05:42:28;100211.06;;;25.29;54.56
12182;BME280;6154;51.550;12.138;2022-08-14T05:45:04;100208.44;;;25.50;54.41
12182;BME280;6154;51.550;12.138;2022-08-14T05:47:40;100203.84;;;25.65;54.39
12182;BME280;6154;51.550;12.138;2022-08-14T05:50:13;100193.03;;;25.80;54.20
12182;BME280;6154;51.550;12.138;2022-08-14T05:52:47;100193.69;;;25.97;54.20
12182;BME280;6154;51.550;12.138;2022-08-14T05:55:17;100202.59;;;26.12;53.54
12182;BME280;6154;51.550;12.138;2022-08-14T05:57:51;100202.94;;;26.24;53.57
12182;BME280;6154;51.550;12.138;2022-08-14T06:00:21;100195.06;;;26.44;53.29
12182;BME280;6154;51.550;12.138;2022-08-14T06:02:59;100196.47;;;26.61;52.90
12182;BME280;6154;51.550;12.138;2022-08-14T06:05:34;100202.81;;;26.68;53.25
12182;BME280;6154;51.550;12.138;2022-08-14T06:08:05;100192.34;;;26.86;53.22
12182;BME280;6154;51.550;12.138;2022-08-14T06:11:03;100192.00;;;26.96;53.53
12182;BME280;6154;51.550;12.138;2022-08-14T06:13:36;100194.84;;;27.09;53.75
12182;BME280;6154;51.550;12.138;2022-08-14T06:16:13;100187.19;;;27.19;53.50
12182;BME280;6154;51.550;12.138;2022-08-14T06:18:45;100181.19;;;27.31;53.47
12182;BME280;6154;51.550;12.138;2022-08-14T06:21:15;100181.25;;;27.44;52.75
12182;BME280;6154;51.550;12.138;2022-08-14T06:23:44;100176.72;;;27.51;52.81
12182;BME280;6154;51.550;12.138;2022-08-14T06:26:14;100166.09;;;27.56;52.86
12182;BME280;6154;51.550;12.138;2022-08-14T06:28:48;100157.81;;;27.71;52.51
12182;BME280;6154;51.550;12.138;2022-08-14T06:31:18;100151.56;;;27.77;52.28
12182;BME280;6154;51.550;12.138;2022-08-14T06:33:46;100156.22;;;27.90;52.02
12182;BME280;6154;51.550;12.138;2022-08-14T06:36:36;100158.09;;;27.89;52.54
12182;BME280;6154;51.550;12.138;2022-08-14T06:39:05;100156.25;;;27.96;52.53
12182;BME280;6154;51.550;12.138;2022-08-14T06:41:37;100159.41;;;28.13;51.98
12182;BME280;6154;51.550;12.138;2022-08-14T06:44:26;100159.09;;;28.36;51.61
12182;BME280;6154;51.550;12.138;2022-08-14T06:47:00;100159.97;;;28.56;51.32
12182;BME280;6154;51.550;12.138;2022-08-14T06:49:29;100164.16;;;28.72;51.17
12182;BME280;6154;51.550;12.138;2022-08-14T06:52:15;100161.63;;;28.84;51.24
12182;BME280;6154;51.550;12.138;2022-08-14T06:54:45;100165.84;;;28.93;51.31
12182;BME280;6154;51.550;12.138;2022-08-14T06:57:13;100164.81;;;29.07;51.11
12182;BME280;6154;51.550;12.138;2022-08-14T06:59:41;100155.75;;;29.27;50.76
12182;BME280;6154;51.550;12.138;2022-08-14T07:02:09;100150.44;;;29.45;50.55
12182;BME280;6154;51.550;12.138;2022-08-14T07:04:55;100155.69;;;29.66;50.31
12182;BME280;6154;51.550;12.138;2022-08-14T07:07:50;100154.34;;;29.82;50.18
12182;BME280;6154;51.550;12.138;2022-08-14T07:10:18;100159.72;;;30.02;49.93
12182;BME280;6154;51.550;12.138;2022-08-14T07:12:50;100156.06;;;30.21;49.67
12182;BME280;6154;51.550;12.138;2022-08-14T07:15:30;100156.41;;;30.31;49.64
12182;BME280;6154;51.550;12.138;2022-08-14T07:18:00;100156.78;;;30.42;49.38
12182;BME280;6154;51.550;12.138;2022-08-14T07:20:29;100158.19;;;30.51;49.32
12182;BME280;6154;51.550;12.138;2022-08-14T07:23:00;100151.56;;;30.65;49.16
12182;BME280;6154;51.550;12.138;2022-08-14T07:25:34;100152.13;;;30.74;48.97
12182;BME280;6154;51.550;12.138;2022-08-14T07:28:11;100150.56;;;30.84;48.94
12182;BME280;6154;51.550;12.138;2022-08-14T07:30:47;100155.81;;;30.86;48.87
12182;BME280;6154;51.550;12.138;2022-08-14T07:33:18;100159.19;;;31.06;48.68
12182;BME280;6154;51.550;12.138;2022-08-14T07:35:57;100168.59;;;31.17;48.51
12182;BME280;6154;51.550;12.138;2022-08-14T07:38:27;100162.16;;;31.30;48.47
12182;BME280;6154;51.550;12.138;2022-08-14T07:41:04;100160.72;;;31.45;48.25
12182;BME280;6154;51.550;12.138;2022-08-14T07:43:41;100167.25;;;31.63;47.88
12182;BME280;6154;51.550;12.138;2022-08-14T07:46:22;100171.84;;;31.69;47.82
12182;BME280;6154;51.550;12.138;2022-08-14T07:48:55;100171.22;;;31.85;47.68
12182;BME280;6154;51.550;12.138;2022-08-14T07:51:24;100156.69;;;32.03;47.35
12182;BME280;6154;51.550;12.138;2022-08-14T07:54:05;100150.91;;;32.23;47.17
12182;BME280;6154;51.550;12.138;2022-08-14T07:56:38;100149.06;;;32.35;46.86
12182;BME280;6154;51.550;12.138;2022-08-14T07:59:15;100147.09;;;32.54;46.65
12182;BME280;6154;51.550;12.138;2022-08-14T08:01:45;100148.09;;;32.71;46.33
12182;BME280;6154;51.550;12.138;2022-08-14T08:04:21;100140.59;;;32.78;46.26
12182;BME280;6154;51.550;12.138;2022-08-14T08:06:51;100148.00;;;32.78;45.58
12182;BME280;6154;51.550;12.138;2022-08-14T08:09:24;100146.09;;;32.78;45.96
12182;BME280;6154;51.550;12.138;2022-08-14T08:11:59;100145.37;;;32.83;45.43
12182;BME280;6154;51.550;12.138;2022-08-14T08:14:35;100141.81;;;32.94;45.86
12182;BME280;6154;51.550;12.138;2022-08-14T08:17:23;100144.56;;;33.06;45.60
12182;BME280;6154;51.550;12.138;2022-08-14T08:20:01;100138.34;;;33.22;45.38
12182;BME280;6154;51.550;12.138;2022-08-14T08:22:29;100141.94;;;33.23;45.33
12182;BME280;6154;51.550;12.138;2022-08-14T08:24:59;100138.94;;;33.36;44.97
12182;BME280;6154;51.550;12.138;2022-08-14T08:27:28;100137.50;;;33.45;44.79
12182;BME280;6154;51.550;12.138;2022-08-14T08:30:03;100138.91;;;33.59;44.69
12182;BME280;6154;51.550;12.138;2022-08-14T08:32:39;100139.59;;;33.66;43.65
12182;BME280;6154;51.550;12.138;2022-08-14T08:35:16;100137.56;;;33.73;44.20
12182;BME280;6154;51.550;12.138;2022-08-14T08:37:44;100145.06;;;33.90;42.87
12182;BME280;6154;51.550;12.138;2022-08-14T08:40:22;100138.44;;;34.03;43.72
12182;BME280;6154;51.550;12.138;2022-08-14T08:42:58;100135.19;;;34.06;42.16
12182;BME280;6154;51.550;12.138;2022-08-14T08:45:27;100133.00;;;34.19;43.55
12182;BME280;6154;51.550;12.138;2022-08-14T08:47:55;100137.09;;;34.34;43.50
12182;BME280;6154;51.550;12.138;2022-08-14T08:50:25;100131.09;;;34.37;42.96
12182;BME280;6154;51.550;12.138;2022-08-14T08:52:58;100121.87;;;34.43;42.66
12182;BME280;6154;51.550;12.138;2022-08-14T08:55:34;100117.66;;;34.52;42.83
12182;BME280;6154;51.550;12.138;2022-08-14T08:58:05;100113.38;;;34.44;41.00
12182;BME280;6154;51.550;12.138;2022-08-14T09:00:47;100110.06;;;34.59;42.33
12182;BME280;6154;51.550;12.138;2022-08-14T09:03:21;100110.88;;;34.76;42.10
12182;BME280;6154;51.550;12.138;2022-08-14T09:05:55;100108.13;;;34.76;41.95
12182;BME280;6154;51.550;12.138;2022-08-14T09:08:25;100104.87;;;34.79;41.42
12182;BME280;6154;51.550;12.138;2022-08-14T09:11:02;100104.38;;;34.82;41.20
12182;BME280;6154;51.550;12.138;2022-08-14T09:13:48;100100.84;;;34.87;40.97
12182;BME280;6154;51.550;12.138;2022-08-14T09:16:21;100096.03;;;34.77;40.56
12182;BME280;6154;51.550;12.138;2022-08-14T09:18:52;100100.84;;;34.87;40.36
12182;BME280;6154;51.550;12.138;2022-08-14T09:21:21;100088.63;;;34.95;41.27
12182;BME280;6154;51.550;12.138;2022-08-14T09:23:58;100088.50;;;35.06;41.01
12182;BME280;6154;51.550;12.138;2022-08-14T09:26:47;100089.16;;;35.13;40.52
12182;BME280;6154;51.550;12.138;2022-08-14T09:29:17;100087.59;;;35.18;40.64
12182;BME280;6154;51.550;12.138;2022-08-14T09:31:52;100086.94;;;35.32;40.62
12182;BME280;6154;51.550;12.138;2022-08-14T09:34:42;100087.63;;;35.39;40.00
12182;BME280;6154;51.550;12.138;2022-08-14T09:37:37;100074.87;;;35.55;37.99
12182;BME280;6154;51.550;12.138;2022-08-14T09:40:16;100074.69;;;35.62;37.54
12182;BME280;6154;51.550;12.138;2022-08-14T09:42:58;100074.91;;;35.82;38.33
12182;BME280;6154;51.550;12.138;2022-08-14T09:45:32;100065.69;;;35.93;37.73
12182;BME280;6154;51.550;12.138;2022-08-14T09:48:19;100066.06;;;35.80;37.84
12182;BME280;6154;51.550;12.138;2022-08-14T09:50:54;100057.50;;;36.04;39.38
12182;BME280;6154;51.550;12.138;2022-08-14T09:53:36;100054.22;;;36.07;38.78
12182;BME280;6154;51.550;12.138;2022-08-14T09:56:28;100055.47;;;36.21;36.93
12182;BME280;6154;51.550;12.138;2022-08-14T09:59:09;100050.03;;;36.31;38.11
12182;BME280;6154;51.550;12.138;2022-08-14T10:01:42;100045.16;;;36.38;36.54
12182;BME280;6154;51.550;12.138;2022-08-14T10:04:21;100041.78;;;36.68;38.11
12182;BME280;6154;51.550;12.138;2022-08-14T10:07:01;100039.38;;;36.82;37.46
12182;BME280;6154;51.550;12.138;2022-08-14T10:09:30;100028.44;;;36.97;38.39
12182;BME280;6154;51.550;12.138;2022-08-14T10:12:01;100021.31;;;37.01;38.24
12182;BME280;6154;51.550;12.138;2022-08-14T10:14:33;100025.19;;;37.05;37.76
12182;BME280;6154;51.550;12.138;2022-08-14T10:17:04;100015.28;;;37.15;37.08
12182;BME280;6154;51.550;12.138;2022-08-14T10:19:46;100020.28;;;37.28;37.62
12182;BME280;6154;51.550;12.138;2022-08-14T10:22:14;100015.38;;;37.35;34.13
12182;BME280;6154;51.550;12.138;2022-08-14T10:25:09;100010.47;;;37.52;37.04
12182;BME280;6154;51.550;12.138;2022-08-14T10:27:41;100006.47;;;37.28;34.57
12182;BME280;6154;51.550;12.138;2022-08-14T10:30:15;100007.66;;;37.37;37.10
12182;BME280;6154;51.550;12.138;2022-08-14T10:32:51;100007.13;;;37.45;35.61
12182;BME280;6154;51.550;12.138;2022-08-14T10:35:21;100005.81;;;37.63;36.67
12182;BME280;6154;51.550;12.138;2022-08-14T10:37:59;100005.81;;;37.63;36.36
12182;BME280;6154;51.550;12.138;2022-08-14T10:40:29;100001.41;;;37.72;35.47
12182;BME280;6154;51.550;12.138;2022-08-14T10:43:18;99999.16;;;37.64;36.00
12182;BME280;6154;51.550;12.138;2022-08-14T10:45:56;99986.47;;;37.63;34.04
12182;BME280;6154;51.550;12.138;2022-08-14T10:48:54;99978.41;;;37.56;33.59
12182;BME280;6154;51.550;12.138;2022-08-14T10:51:24;99985.03;;;37.40;33.17
12182;BME280;6154;51.550;12.138;2022-08-14T10:53:56;99979.63;;;37.91;36.03
12182;BME280;6154;51.550;12.138;2022-08-14T10:56:43;99979.88;;;38.05;35.72
12182;BME280;6154;51.550;12.138;2022-08-14T10:59:11;99974.62;;;38.08;35.24
12182;BME280;6154;51.550;12.138;2022-08-14T11:01:41;99979.63;;;38.11;35.05
12182;BME280;6154;51.550;12.138;2022-08-14T11:04:19;99974.09;;;38.11;35.06
12182;BME280;6154;51.550;12.138;2022-08-14T11:06:53;99971.84;;;38.13;33.18
12182;BME280;6154;51.550;12.138;2022-08-14T11:09:22;99971.59;;;38.20;35.19
12182;BME280;6154;51.550;12.138;2022-08-14T11:11:58;99975.75;;;38.33;35.21
12182;BME280;6154;51.550;12.138;2022-08-14T11:14:52;99962.72;;;38.43;35.19
12182;BME280;6154;51.550;12.138;2022-08-14T11:17:27;99950.78;;;38.58;33.97
12182;BME280;6154;51.550;12.138;2022-08-14T11:19:59;99950.50;;;38.60;33.89
12182;BME280;6154;51.550;12.138;2022-08-14T11:22:30;99953.53;;;38.73;34.40
12182;BME280;6154;51.550;12.138;2022-08-14T11:25:20;99948.53;;;38.75;34.65
12182;BME280;6154;51.550;12.138;2022-08-14T11:27:51;99953.00;;;38.56;34.85
12182;BME280;6154;51.550;12.138;2022-08-14T11:30:23;99950.47;;;38.65;34.23
12182;BME280;6154;51.550;12.138;2022-08-14T11:33:13;99944.38;;;38.83;34.46
12182;BME280;6154;51.550;12.138;2022-08-14T11:35:46;99935.19;;;38.93;33.69
12182;BME280;6154;51.550;12.138;2022-08-14T11:38:16;99929.06;;;38.96;32.21
12182;BME280;6154;51.550;12.138;2022-08-14T11:40:47;99939.78;;;39.18;33.60
12182;BME280;6154;51.550;12.138;2022-08-14T11:43:18;99931.22;;;39.14;33.92
12182;BME280;6154;51.550;12.138;2022-08-14T11:45:55;99929.00;;;39.16;33.76
12182;BME280;6154;51.550;12.138;2022-08-14T11:48:30;99916.13;;;39.35;33.47
12182;BME280;6154;51.550;12.138;2022-08-14T11:51:20;99911.53;;;39.16;32.94
12182;BME280;6154;51.550;12.138;2022-08-14T11:53:52;99906.53;;;39.23;33.13
12182;BME280;6154;51.550;12.138;2022-08-14T11:56:21;99906.03;;;39.10;33.35
12182;BME280;6154;51.550;12.138;2022-08-14T11:58:53;99903.66;;;38.89;33.28
12182;BME280;6154;51.550;12.138;2022-08-14T12:01:26;99897.97;;;38.44;32.13
12182;BME280;6154;51.550;12.138;2022-08-14T12:04:09;99896.38;;;38.13;32.42
12182;BME280;6154;51.550;12.138;2022-08-14T12:06:57;99890.03;;;37.87;32.17
12182;BME280;6154;51.550;12.138;2022-08-14T12:09:29;99890.56;;;37.63;33.71
12182;BME280;6154;51.550;12.138;2022-08-14T12:11:58;99887.25;;;37.66;33.21
12182;BME280;6154;51.550;12.138;2022-08-14T12:14:27;99882.03;;;37.90;33.30
12182;BME280;6154;51.550;12.138;2022-08-14T12:17:02;99880.06;;;38.11;33.04
12182;BME280;6154;51.550;12.138;2022-08-14T12:19:44;99866.75;;;38.39;32.55
12182;BME280;6154;51.550;12.138;2022-08-14T12:22:31;99872.47;;;38.58;30.31
12182;BME280;6154;51.550;12.138;2022-08-14T12:25:02;99868.88;;;38.62;29.17
12182;BME280;6154;51.550;12.138;2022-08-14T12:27:38;99866.69;;;38.54;31.55
12182;BME280;6154;51.550;12.138;2022-08-14T12:30:32;99868.38;;;38.45;31.33
12182;BME280;6154;51.550;12.138;2022-08-14T12:33:20;99858.72;;;38.42;28.66
12182;BME280;6154;51.550;12.138;2022-08-14T12:35:59;99850.13;;;38.49;28.64
12182;BME280;6154;51.550;12.138;2022-08-14T12:38:33;99848.19;;;38.49;29.85
12182;BME280;6154;51.550;12.138;2022-08-14T12:41:07;99845.88;;;38.72;31.23
12182;BME280;6154;51.550;12.138;2022-08-14T12:43:44;99846.41;;;38.79;31.04
12182;BME280;6154;51.550;12.138;2022-08-14T12:46:21;99834.53;;;38.63;28.57
12182;BME280;6154;51.550;12.138;2022-08-14T12:48:56;99828.44;;;38.71;28.59
12182;BME280;6154;51.550;12.138;2022-08-14T12:51:27;99818.44;;;38.80;30.88
12182;BME280;6154;51.550;12.138;2022-08-14T12:53:57;99822.84;;;38.81;30.07
12182;BME280;6154;51.550;12.138;2022-08-14T12:56:26;99820.66;;;38.78;30.94
12182;BME280;6154;51.550;12.138;2022-08-14T12:59:01;99817.84;;;38.89;30.92
12182;BME280;6154;51.550;12.138;2022-08-14T13:01:32;99815.47;;;39.06;30.42
12182;BME280;6154;51.550;12.138;2022-08-14T13:04:21;99810.47;;;39.13;30.72
12182;BME280;6154;51.550;12.138;2022-08-14T13:06:50;99801.59;;;39.16;30.44
12182;BME280;6154;51.550;12.138;2022-08-14T13:09:20;99800.59;;;38.97;30.41
12182;BME280;6154;51.550;12.138;2022-08-14T13:12:03;99793.31;;;39.06;30.40
12182;BME280;6154;51.550;12.138;2022-08-14T13:14:54;99790.22;;;39.18;30.30
12182;BME280;6154;51.550;12.138;2022-08-14T13:17:24;99781.88;;;38.84;28.97
12182;BME280;6154;51.550;12.138;2022-08-14T13:19:56;99781.25;;;38.92;30.43
12182;BME280;6154;51.550;12.138;2022-08-14T13:22:25;99787.97;;;38.80;29.43
12182;BME280;6154;51.550;12.138;2022-08-14T13:25:02;99775.75;;;38.87;30.35
12182;BME280;6154;51.550;12.138;2022-08-14T13:27:32;99772.44;;;38.85;29.70
12182;BME280;6154;51.550;12.138;2022-08-14T13:30:08;99776.41;;;38.73;29.87
12182;BME280;6154;51.550;12.138;2022-08-14T13:32:50;99776.19;;;38.54;30.31
12182;BME280;6154;51.550;12.138;2022-08-14T13:35:19;99770.19;;;38.42;30.52
12182;BME280;6154;51.550;12.138;2022-08-14T13:37:50;99764.69;;;38.32;30.27
12182;BME280;6154;51.550;12.138;2022-08-14T13:40:22;99758.63;;;38.30;30.29